createdAt,value
2018-05-10T00:02:00.517Z,43.40
2018-05-10T00:04:28.074Z,37.73
2018-05-10T00:06:55.709Z,40.95
2018-05-10T00:09:23.257Z,41.90
2018-05-10T00:11:51.549Z,40.80
2018-05-10T00:14:19.147Z,43.23
2018-05-10T00:16:46.702Z,42.10
2018-05-10T00:19:14.258Z,41.08
2018-05-10T00:21:41.842Z,44.78
2018-05-10T00:24:10.164Z,43.53
2018-05-10T00:26:37.716Z,41.00
2018-05-10T00:29:05.521Z,41.23
2018-05-10T00:31:33.016Z,45.17
2018-05-10T00:34:01.337Z,43.20
2018-05-10T00:36:28.928Z,42.07
2018-05-10T00:38:56.481Z,42.73
2018-05-10T00:41:24.038Z,44.07
2018-05-10T00:43:51.631Z,42.10
2018-05-10T00:46:19.979Z,42.47
2018-05-10T00:48:47.535Z,44.20
2018-05-10T00:51:15.698Z,43.70
2018-05-10T00:53:43.256Z,43.07
2018-05-10T00:56:10.812Z,48.03
2018-05-10T00:58:38.405Z,45.63
2018-05-10T01:01:05.958Z,44.53
2018-05-10T01:03:33.528Z,45.63
2018-05-10T01:06:01.117Z,46.23
2018-05-10T01:08:29.439Z,40.83
2018-05-10T01:10:56.995Z,39.83
2018-05-10T01:13:25.079Z,44.33
2018-05-10T01:15:52.632Z,41.47
2018-05-10T01:18:20.189Z,42.03
2018-05-10T01:20:47.777Z,42.43
2018-05-10T01:23:15.341Z,43.70
2018-05-10T01:25:42.898Z,42.33
2018-05-10T01:28:10.485Z,41.83
2018-05-10T01:30:38.286Z,45.78
2018-05-10T01:33:05.887Z,47.97
2018-05-10T01:36:10.540Z,42.10
2018-05-10T01:38:38.092Z,51.53
2018-05-10T01:41:05.670Z,47.40
2018-05-10T01:43:33.257Z,46.70
2018-05-10T01:46:00.824Z,44.47
2018-05-10T01:48:28.389Z,49.03
2018-05-10T01:50:55.979Z,51.23
2018-05-10T01:53:23.538Z,46.90
2018-05-10T01:55:51.102Z,48.90
2018-05-10T01:58:19.383Z,57.30
2018-05-10T02:00:46.976Z,50.03
2018-05-10T02:03:14.502Z,58.13
2018-05-10T02:05:42.105Z,54.67
2018-05-10T02:08:10.437Z,55.73
2018-05-10T02:10:37.997Z,55.73
2018-05-10T02:13:05.591Z,57.93
2018-05-10T02:15:33.149Z,51.63
2018-05-10T02:18:00.719Z,60.28
2018-05-10T02:20:28.324Z,54.80
2018-05-10T02:22:55.881Z,61.08
2018-05-10T02:25:23.437Z,58.53
2018-05-10T02:27:51.025Z,58.43
2018-05-10T02:30:18.581Z,57.20
2018-05-10T02:32:46.130Z,56.63
2018-05-10T02:35:13.758Z,58.20
2018-05-10T02:37:41.276Z,60.70
2018-05-10T02:40:08.841Z,56.30
2018-05-10T02:42:36.435Z,57.63
2018-05-10T02:45:04.006Z,63.53
2018-05-10T02:47:32.325Z,57.30
2018-05-10T02:49:59.913Z,62.30
2018-05-10T02:52:27.472Z,65.70
2018-05-10T02:54:55.027Z,68.80
2018-05-10T02:57:22.615Z,71.67
2018-05-10T02:59:50.167Z,70.57
2018-05-10T03:02:17.726Z,69.33
2018-05-10T03:04:45.325Z,80.70
2018-05-10T03:07:13.642Z,78.93
2018-05-10T03:09:41.212Z,79.13
2018-05-10T03:12:08.813Z,78.03
2018-05-10T03:14:36.366Z,82.57
2018-05-10T03:17:03.922Z,78.67
2018-05-10T03:19:31.513Z,77.07
2018-05-10T03:21:59.071Z,72.17
2018-05-10T03:24:27.395Z,77.87
2018-05-10T03:26:54.995Z,73.60
2018-05-10T03:29:22.551Z,77.30
2018-05-10T03:31:50.102Z,81.47
2018-05-10T03:34:17.690Z,83.03
2018-05-10T03:36:46.024Z,86.37
2018-05-10T03:39:13.573Z,79.50
2018-05-10T03:41:41.169Z,75.80
2018-05-10T03:44:08.729Z,70.60
2018-05-10T03:46:36.282Z,74.33
2018-05-10T03:49:03.891Z,76.37
2018-05-10T03:51:31.450Z,92.12
2018-05-10T03:53:59.007Z,79.43
2018-05-10T03:56:26.594Z,75.53
2018-05-10T03:58:54.156Z,74.23
2018-05-10T04:01:21.714Z,77.80
2018-05-10T04:04:13.743Z,78.97
2018-05-10T04:07:18.193Z,76.97
2018-05-10T04:10:25.534Z,76.50
2018-05-10T04:12:53.853Z,74.23
2018-05-10T04:15:21.408Z,77.87
2018-05-10T04:17:48.987Z,87.30
2018-05-10T04:20:16.546Z,79.73
2018-05-10T04:22:44.111Z,78.90
2018-05-10T04:25:11.713Z,81.50
2018-05-10T04:27:40.035Z,78.60
2018-05-10T04:30:07.602Z,76.33
2018-05-10T04:32:35.183Z,75.30
2018-05-10T04:35:02.742Z,77.23
2018-05-10T04:37:30.330Z,85.53
2018-05-10T04:39:57.881Z,74.83
2018-05-10T04:42:25.442Z,79.20
2018-05-10T04:44:52.996Z,77.30
2018-05-10T04:47:20.589Z,94.70
2018-05-10T04:49:48.917Z,78.73
2018-05-10T04:52:16.478Z,77.97
2018-05-10T04:54:44.138Z,76.87
2018-05-10T04:57:11.613Z,83.63
2018-05-10T04:59:39.171Z,78.40
2018-05-10T05:02:06.757Z,80.40
2018-05-10T05:04:34.341Z,93.78
2018-05-10T05:07:02.665Z,84.20
2018-05-10T05:09:30.281Z,82.40
2018-05-10T05:11:57.894Z,75.80
2018-05-10T05:14:26.166Z,88.03
2018-05-10T05:16:53.751Z,81.20
2018-05-10T05:19:21.305Z,86.50
2018-05-10T05:21:48.870Z,92.05
2018-05-10T05:24:16.459Z,87.70
2018-05-10T05:26:44.777Z,84.50
2018-05-10T05:29:12.329Z,94.87
2018-05-10T05:31:39.941Z,83.17
2018-05-10T05:34:07.498Z,76.50
2018-05-10T05:36:35.082Z,80.43
2018-05-10T05:39:02.659Z,81.97
2018-05-10T05:41:30.278Z,93.35
2018-05-10T05:43:57.782Z,85.33
2018-05-10T05:46:25.376Z,85.03
2018-05-10T05:48:52.934Z,78.40
2018-05-10T05:51:20.527Z,85.10
2018-05-10T05:53:48.098Z,82.33
2018-05-10T05:56:15.663Z,76.73
2018-05-10T05:58:43.219Z,71.60
2018-05-10T06:01:10.859Z,73.87
2018-05-10T06:03:38.435Z,74.23
2018-05-10T06:06:06.027Z,82.20
2018-05-10T06:08:34.526Z,92.88
2018-05-10T06:11:02.032Z,90.97
2018-05-10T06:13:29.614Z,76.90
2018-05-10T06:15:58.009Z,89.28
2018-05-10T06:18:25.545Z,79.83
2018-05-10T06:20:53.104Z,72.20
2018-05-10T06:23:20.715Z,69.13
2018-05-10T06:25:48.280Z,73.97
2018-05-10T06:28:15.853Z,63.20
2018-05-10T06:30:43.442Z,60.10
2018-05-10T06:33:11.001Z,62.53
2018-05-10T06:35:38.559Z,60.13
2018-05-10T06:38:06.667Z,73.87
2018-05-10T06:40:34.991Z,71.78
2018-05-10T06:43:02.549Z,55.77
2018-05-10T06:45:30.163Z,60.53
2018-05-10T06:47:57.716Z,57.73
2018-05-10T06:50:25.273Z,55.43
2018-05-10T06:52:52.916Z,51.37
2018-05-10T06:55:20.475Z,53.53
2018-05-10T06:57:48.040Z,53.70
2018-05-10T07:00:15.714Z,54.27
2018-05-10T07:02:43.239Z,55.13
2018-05-10T07:05:10.819Z,58.67
2018-05-10T07:07:38.995Z,59.43
2018-05-10T07:10:06.551Z,53.60
2018-05-10T07:12:34.111Z,52.80
2018-05-10T07:15:01.718Z,57.77
2018-05-10T07:17:30.047Z,58.60
2018-05-10T07:19:57.606Z,58.67
2018-05-10T07:22:25.207Z,56.23
2018-05-10T07:24:52.791Z,59.23
2018-05-10T07:27:20.333Z,73.53
2018-05-10T07:29:47.953Z,71.70
2018-05-10T07:32:15.509Z,83.57
2018-05-10T07:34:43.489Z,68.97
2018-05-10T07:37:11.814Z,66.93
2018-05-10T07:39:40.137Z,68.80
2018-05-10T07:42:07.701Z,70.73
2018-05-10T07:44:35.337Z,61.17
2018-05-10T07:47:02.924Z,63.27
2018-05-10T07:49:31.220Z,64.00
2018-05-10T07:51:58.814Z,60.17
2018-05-10T07:54:26.370Z,59.63
2018-05-10T07:56:53.928Z,52.37
2018-05-10T07:59:21.577Z,49.47
2018-05-10T08:01:49.130Z,53.03
2018-05-10T08:04:16.779Z,51.07
2018-05-10T08:06:45.267Z,47.37
2018-05-10T08:09:12.829Z,47.20
2018-05-10T08:11:40.395Z,49.40
2018-05-10T08:14:08.064Z,37.37
2018-05-10T08:16:35.644Z,35.43
2018-05-10T08:19:03.207Z,29.50
2018-05-10T08:21:30.837Z,29.93
2018-05-10T08:23:58.363Z,28.50
2018-05-10T08:26:25.922Z,24.97
2018-05-10T08:28:54.496Z,21.03
2018-05-10T08:31:22.819Z,21.17
2018-05-10T08:33:50.382Z,23.17
2018-05-10T08:36:18.019Z,21.07
2018-05-10T08:38:45.573Z,20.93
2018-05-10T08:41:13.128Z,15.77
2018-05-10T08:43:40.728Z,17.63
2018-05-10T08:46:08.305Z,9.97
2018-05-10T08:48:35.854Z,11.97
2018-05-10T08:51:03.485Z,14.40
2018-05-10T08:53:33.208Z,14.40
2018-05-10T08:56:00.767Z,12.20
2018-05-10T08:58:28.366Z,14.47
2018-05-10T09:00:55.923Z,12.27
2018-05-10T09:03:23.478Z,13.38
2018-05-10T09:05:51.085Z,7.70
2018-05-10T09:08:19.425Z,8.37
2018-05-10T09:10:46.978Z,8.93
2018-05-10T09:13:15.373Z,6.23
2018-05-10T09:15:42.937Z,5.37
2018-05-10T09:18:10.492Z,7.70
2018-05-10T09:20:38.098Z,7.87
2018-05-10T09:23:05.647Z,5.10
2018-05-10T09:25:33.963Z,8.03
2018-05-10T09:28:01.558Z,4.93
2018-05-10T09:30:29.111Z,6.40
2018-05-10T09:32:56.753Z,5.77
2018-05-10T09:35:24.333Z,5.95
2018-05-10T09:37:51.891Z,7.23
2018-05-10T09:40:19.452Z,6.80
2018-05-10T09:42:47.052Z,8.33
2018-05-10T09:45:14.612Z,7.35
2018-05-10T09:47:42.173Z,7.90
2018-05-10T09:50:11.742Z,5.90
2018-05-10T09:52:39.324Z,6.60
2018-05-10T09:55:06.871Z,6.63
2018-05-10T09:57:35.568Z,7.83
2018-05-10T10:00:06.361Z,5.47
2018-05-10T10:02:33.910Z,7.57
2018-05-10T10:05:01.803Z,5.00
2018-05-10T10:07:29.253Z,5.13
2018-05-10T10:09:56.821Z,6.17
2018-05-10T10:12:24.408Z,5.43
2018-05-10T10:14:51.977Z,4.60
2018-05-10T10:17:19.552Z,4.30
2018-05-10T10:19:47.591Z,5.40
2018-05-10T10:22:15.151Z,4.60
2018-05-10T10:24:42.710Z,4.57
2018-05-10T10:27:10.301Z,4.23
2018-05-10T10:29:37.855Z,6.80
2018-05-10T10:32:05.399Z,7.27
2018-05-10T10:34:34.677Z,3.90
2018-05-10T10:37:02.127Z,4.67
2018-05-10T10:39:29.681Z,3.70
2018-05-10T10:42:16.438Z,6.53
2018-05-10T10:44:43.944Z,8.67
2018-05-10T10:47:11.497Z,9.03
2018-05-10T10:49:39.863Z,7.97
2018-05-10T10:52:08.189Z,9.23
2018-05-10T10:54:35.735Z,11.50
2018-05-10T10:57:04.499Z,5.97
2018-05-10T10:59:33.342Z,4.97
2018-05-10T11:02:00.987Z,3.40
2018-05-10T11:04:28.581Z,4.57
2018-05-10T11:06:56.132Z,7.80
2018-05-10T11:09:23.814Z,5.13
2018-05-10T11:11:51.448Z,5.87
2018-05-10T11:14:18.986Z,5.50
2018-05-10T11:16:46.562Z,8.67
2018-05-10T11:19:14.176Z,5.77
2018-05-10T11:21:41.866Z,3.40
2018-05-10T11:24:09.658Z,4.93
2018-05-10T11:26:37.252Z,2.80
2018-05-10T11:29:04.805Z,4.43
2018-05-10T11:31:32.365Z,3.63
2018-05-10T11:34:00.406Z,3.20
2018-05-10T11:36:28.153Z,1.93
2018-05-10T11:38:55.713Z,4.47
2018-05-10T11:41:23.337Z,2.63
2018-05-10T11:43:50.915Z,7.13
2018-05-10T11:46:18.845Z,3.80
2018-05-10T11:48:46.492Z,2.63
2018-05-10T11:51:14.010Z,3.83
2018-05-10T11:53:44.527Z,2.50
2018-05-10T11:56:12.125Z,2.40
2018-05-10T11:58:39.688Z,4.77
2018-05-10T12:01:08.018Z,2.60
2018-05-10T12:03:35.638Z,3.63
2018-05-10T12:06:03.396Z,3.00
2018-05-10T12:08:30.758Z,3.97
2018-05-10T12:10:58.380Z,6.47
2018-05-10T12:13:25.980Z,5.27
2018-05-10T12:15:53.590Z,3.73
2018-05-10T12:18:21.198Z,3.30
2018-05-10T12:20:48.755Z,5.37
2018-05-10T12:23:17.311Z,4.93
2018-05-10T12:25:45.880Z,3.77
2018-05-10T12:28:13.461Z,5.07
2018-05-10T12:30:41.045Z,5.07
2018-05-10T12:33:09.420Z,5.53
2018-05-10T12:35:38.022Z,5.90
2018-05-10T12:38:05.520Z,4.93
2018-05-10T12:40:33.330Z,6.57
2018-05-10T12:43:01.649Z,6.27
2018-05-10T12:45:29.197Z,5.75
2018-05-10T12:47:56.879Z,4.83
2018-05-10T12:50:24.400Z,6.53
2018-05-10T12:52:51.951Z,7.03
2018-05-10T12:55:20.344Z,6.47
2018-05-10T12:57:47.867Z,6.20
2018-05-10T13:00:15.417Z,7.53
2018-05-10T13:02:45.447Z,9.20
2018-05-10T13:05:12.989Z,6.63
2018-05-10T13:07:44.112Z,4.63
2018-05-10T13:10:11.422Z,6.87
2018-05-10T13:12:38.979Z,5.13
2018-05-10T13:15:06.537Z,6.73
2018-05-10T13:17:35.190Z,8.20
2018-05-10T13:20:02.771Z,6.67
2018-05-10T13:22:31.257Z,8.10
2018-05-10T13:24:59.679Z,12.90
2018-05-10T13:27:31.880Z,11.63
2018-05-10T13:30:00.241Z,6.00
2018-05-10T13:32:27.825Z,7.07
2018-05-10T13:34:55.366Z,4.33
2018-05-10T13:37:22.919Z,6.50
2018-05-10T13:39:50.542Z,5.67
2018-05-10T13:42:18.097Z,4.30
2018-05-10T13:44:45.974Z,6.87
2018-05-10T13:47:20.487Z,6.33
2018-05-10T13:49:48.016Z,6.33
2018-05-10T13:52:15.678Z,6.13
2018-05-10T13:54:45.168Z,6.87
2018-05-10T13:57:11.440Z,8.13
2018-05-10T13:59:38.989Z,2.67
2018-05-10T14:02:06.847Z,5.87
2018-05-10T14:04:34.403Z,5.90
2018-05-10T14:07:01.948Z,5.40
2018-05-10T14:09:30.833Z,2.63
2018-05-10T14:11:59.911Z,4.93
2018-05-10T14:14:27.427Z,5.33
2018-05-10T14:16:55.072Z,5.30
2018-05-10T14:19:22.719Z,6.97
2018-05-10T14:21:50.259Z,5.50
2018-05-10T14:24:17.855Z,4.73
2018-05-10T14:26:45.406Z,2.63
2018-05-10T14:29:12.968Z,6.60
2018-05-10T14:31:40.566Z,2.97
2018-05-10T14:34:08.199Z,3.53
2018-05-10T14:36:37.097Z,4.63
2018-05-10T14:39:07.635Z,5.90
2018-05-10T14:41:35.178Z,4.43
2018-05-10T14:44:02.733Z,6.37
2018-05-10T14:46:30.328Z,4.00
2018-05-10T14:48:57.883Z,7.00
2018-05-10T14:51:25.428Z,5.80
2018-05-10T14:53:53.029Z,5.50
2018-05-10T14:56:20.577Z,4.70
2018-05-10T14:58:48.128Z,5.27
2018-05-10T15:01:16.314Z,3.90
2018-05-10T15:03:45.925Z,3.47
2018-05-10T15:06:11.422Z,4.27
2018-05-10T15:08:39.504Z,7.93
2018-05-10T15:11:07.060Z,5.27
2018-05-10T15:13:34.609Z,9.17
2018-05-10T15:16:03.216Z,5.50
2018-05-10T15:18:30.764Z,4.00
2018-05-10T15:20:58.314Z,3.60
2018-05-10T15:23:25.928Z,3.70
2018-05-10T15:25:53.475Z,7.80
2018-05-10T15:28:21.029Z,5.57
2018-05-10T15:30:48.628Z,4.10
2018-05-10T15:33:16.177Z,4.73
2018-05-10T15:35:43.723Z,6.87
2018-05-10T15:38:11.771Z,5.97
2018-05-10T15:40:39.313Z,3.53
2018-05-10T15:43:06.860Z,4.60
2018-05-10T15:45:35.372Z,3.70
2018-05-10T15:48:02.929Z,3.40
2018-05-10T15:50:30.474Z,5.30
2018-05-10T15:53:01.095Z,4.17
2018-05-10T15:55:28.637Z,2.97
2018-05-10T15:57:56.217Z,5.27
2018-05-10T16:00:23.814Z,7.67
2018-05-10T16:02:51.367Z,4.37
2018-05-10T16:05:18.911Z,4.27
2018-05-10T16:07:47.008Z,3.53
2018-05-10T16:10:14.555Z,5.67
2018-05-10T16:12:42.100Z,7.03
2018-05-10T16:15:09.693Z,7.13
2018-05-10T16:17:37.248Z,7.13
2018-05-10T16:20:04.828Z,4.23
2018-05-10T16:22:32.421Z,5.10
2018-05-10T16:25:00.742Z,5.37
2018-05-10T16:27:28.289Z,4.63
2018-05-10T16:29:55.922Z,4.53
2018-05-10T16:32:23.443Z,5.47
2018-05-10T16:34:50.990Z,7.67
2018-05-10T16:37:18.966Z,4.63
2018-05-10T16:39:46.513Z,4.97
2018-05-10T16:42:14.066Z,5.03
2018-05-10T16:44:41.669Z,3.17
2018-05-10T16:47:09.213Z,3.03
2018-05-10T16:49:36.762Z,2.53
2018-05-10T16:52:04.399Z,1.97
2018-05-10T16:54:31.942Z,2.73
2018-05-10T16:57:05.666Z,3.60
2018-05-10T16:59:33.307Z,2.33
2018-05-10T17:02:00.854Z,2.73
2018-05-10T17:04:28.404Z,4.57
2018-05-10T17:06:56.509Z,3.73
2018-05-10T17:09:24.825Z,3.90
2018-05-10T17:11:52.917Z,2.00
2018-05-10T17:14:20.541Z,2.20
2018-05-10T17:16:48.092Z,2.87
2018-05-10T17:19:15.606Z,2.37
2018-05-10T17:21:43.231Z,3.65
2018-05-10T17:24:10.772Z,3.97
2018-05-10T17:26:39.085Z,2.60
2018-05-10T17:29:06.676Z,3.63
2018-05-10T17:31:34.225Z,3.50
2018-05-10T17:34:01.787Z,3.33
2018-05-10T17:36:29.431Z,2.35
2018-05-10T17:38:56.982Z,3.10
2018-05-10T17:41:24.539Z,2.07
2018-05-10T17:43:52.642Z,3.47
2018-05-10T17:46:20.191Z,3.17
2018-05-10T17:48:47.757Z,2.67
2018-05-10T17:51:15.377Z,6.20
2018-05-10T17:53:43.706Z,3.57
2018-05-10T17:56:11.285Z,3.10
2018-05-10T17:58:39.437Z,5.10
2018-05-10T18:01:07.085Z,2.17
2018-05-10T18:03:34.526Z,4.00
2018-05-10T18:06:02.135Z,3.20
2018-05-10T18:08:29.693Z,2.27
2018-05-10T18:10:57.248Z,3.95
2018-05-10T18:13:24.839Z,3.33
2018-05-10T18:15:52.402Z,1.60
2018-05-10T18:18:19.954Z,1.93
2018-05-10T18:20:47.556Z,1.83
2018-05-10T18:23:15.134Z,1.65
2018-05-10T18:25:42.658Z,5.73
2018-05-10T18:28:11.050Z,1.73
2018-05-10T18:30:39.407Z,4.33
2018-05-10T18:33:06.933Z,2.30
2018-05-10T18:35:34.554Z,4.50
2018-05-10T18:38:02.105Z,2.50
2018-05-10T18:40:30.520Z,6.13
2018-05-10T18:42:59.377Z,7.43
2018-05-10T18:45:27.697Z,2.13
2018-05-10T18:47:55.251Z,3.07
2018-05-10T18:50:24.134Z,3.00
2018-05-10T18:52:51.713Z,4.32
2018-05-10T18:55:19.293Z,4.57
2018-05-10T18:57:47.457Z,4.30
2018-05-10T19:00:15.095Z,4.77
2018-05-10T19:02:42.711Z,5.57
2018-05-10T19:05:10.362Z,7.63
2018-05-10T19:07:37.952Z,6.97
2018-05-10T19:10:06.279Z,3.87
2018-05-10T19:12:33.890Z,5.50
2018-05-10T19:15:02.214Z,3.40
2018-05-10T19:17:29.770Z,6.47
2018-05-10T19:19:57.695Z,6.03
2018-05-10T19:22:25.229Z,3.43
2018-05-10T19:24:53.858Z,5.60
2018-05-10T19:27:22.296Z,4.03
2018-05-10T19:29:49.848Z,4.43
2018-05-10T19:32:17.764Z,4.93
2018-05-10T19:34:46.552Z,4.57
2018-05-10T19:37:14.910Z,3.93
2018-05-10T19:39:42.450Z,5.83
2018-05-10T19:42:10.054Z,5.40
2018-05-10T19:44:38.509Z,5.68
2018-05-10T19:47:06.087Z,4.47
2018-05-10T19:49:34.450Z,7.05
2018-05-10T19:52:02.007Z,6.63
2018-05-10T19:54:29.552Z,8.57
2018-05-10T19:56:57.953Z,4.60
2018-05-10T19:59:26.864Z,4.37
2018-05-10T20:01:55.195Z,6.93
2018-05-10T20:04:22.797Z,10.40
2018-05-10T20:06:50.372Z,5.53
2018-05-10T20:09:17.931Z,6.33
2018-05-10T20:11:46.337Z,5.07
2018-05-10T20:14:13.886Z,4.60
2018-05-10T20:16:41.437Z,4.50
2018-05-10T20:19:09.815Z,5.27
2018-05-10T20:21:38.244Z,5.80
2018-05-10T20:24:05.856Z,4.70
2018-05-10T20:26:33.416Z,6.03
2018-05-10T20:29:00.985Z,4.77
2018-05-10T20:31:29.288Z,5.37
2018-05-10T20:33:56.905Z,5.50
2018-05-10T20:36:24.459Z,5.20
2018-05-10T20:38:52.039Z,7.37
2018-05-10T20:41:19.637Z,8.33
2018-05-10T20:43:47.189Z,6.97
2018-05-10T20:46:14.739Z,10.50
2018-05-10T20:48:42.383Z,11.82
2018-05-10T20:51:09.938Z,10.73
2018-05-10T20:53:37.489Z,12.70
2018-05-10T20:56:06.085Z,13.17
2018-05-10T20:58:33.660Z,11.07
2018-05-10T21:01:01.199Z,15.30
2018-05-10T21:03:29.391Z,12.47
2018-05-10T21:05:56.897Z,11.88
2018-05-10T21:08:24.450Z,16.57
2018-05-10T21:10:52.912Z,13.17
2018-05-10T21:13:20.467Z,12.23
2018-05-10T21:15:48.792Z,12.80
2018-05-10T21:18:16.389Z,14.43
2018-05-10T21:20:44.089Z,11.23
2018-05-10T21:23:11.668Z,15.03
2018-05-10T21:25:39.207Z,10.30
2018-05-10T21:28:06.747Z,13.27
2018-05-10T21:30:35.062Z,12.60
2018-05-10T21:33:02.671Z,13.93
2018-05-10T21:35:30.223Z,11.33
2018-05-10T21:37:57.804Z,14.53
2018-05-10T21:40:25.394Z,14.75
2018-05-10T21:42:53.030Z,15.10
2018-05-10T21:45:20.520Z,13.97
2018-05-10T21:47:48.517Z,14.77
2018-05-10T21:50:16.076Z,15.00
2018-05-10T21:52:43.621Z,13.17
2018-05-10T21:55:11.346Z,14.70
2018-05-10T21:57:38.906Z,12.60
2018-05-10T22:00:07.225Z,11.40
2018-05-10T22:02:34.822Z,15.63
2018-05-10T22:05:02.387Z,18.80
2018-05-10T22:07:29.938Z,12.40
2018-05-10T22:09:57.549Z,10.43
2018-05-10T22:12:25.111Z,16.03
2018-05-10T22:14:52.682Z,13.30
2018-05-10T22:17:20.263Z,14.83
2018-05-10T22:19:47.857Z,12.70
2018-05-10T22:22:15.372Z,12.50
2018-05-10T22:24:42.970Z,15.90
2018-05-10T22:27:10.531Z,11.60
2018-05-10T22:29:38.089Z,14.43
2018-05-10T22:32:05.677Z,14.07
2018-05-10T22:34:33.234Z,13.10
2018-05-10T22:37:00.785Z,14.77
2018-05-10T22:39:28.373Z,13.40
2018-05-10T22:41:55.929Z,14.10
2018-05-10T22:44:23.507Z,14.40
2018-05-10T22:46:51.099Z,11.07
2018-05-10T22:49:18.649Z,10.50
2018-05-10T22:51:46.201Z,14.40
2018-05-10T22:54:13.789Z,13.70
2018-05-10T22:56:41.345Z,14.27
2018-05-10T22:59:08.894Z,17.03
2018-05-10T23:01:36.487Z,16.43
2018-05-10T23:04:04.044Z,14.77
2018-05-10T23:06:31.600Z,15.40
2018-05-10T23:08:59.207Z,16.37
2018-05-10T23:11:27.528Z,15.83
2018-05-10T23:13:55.077Z,15.07
2018-05-10T23:16:22.662Z,15.80
2018-05-10T23:18:50.219Z,13.17
2018-05-10T23:21:17.773Z,15.30
2018-05-10T23:23:45.362Z,11.50
2018-05-10T23:26:12.917Z,14.93
2018-05-10T23:28:40.475Z,15.57
2018-05-10T23:31:08.504Z,15.53
2018-05-10T23:33:36.060Z,16.53
2018-05-10T23:36:03.699Z,16.07
2018-05-10T23:38:31.211Z,16.73
2018-05-10T23:40:58.771Z,21.30
2018-05-10T23:43:26.331Z,15.97
2018-05-10T23:45:54.311Z,15.50
2018-05-10T23:48:21.864Z,16.47
2018-05-10T23:50:49.417Z,16.33
2018-05-10T23:53:17.018Z,19.80
2018-05-10T23:55:44.586Z,16.50
2018-05-10T23:58:12.147Z,15.87
